Current Weather

Kelly Fld

San Antonio, Texas (KSKF)

Report from: Saturday, February 4, 2023 10:55 PM CST
Current time: Saturday, February 4, 2023 11:28 PM CST

Nearby weather
Weather history
Weather forecast

Temperature7.3°C (45.1°F)
Wind chill6.5°C (43.7°F)
Dew point4.9°C (40.8°F)
Winds 3 kts (1.5 m/s, 3.5 mph) West (280°)
Visibility10 mi. (16.1 km)
Clouds Sky clear
Altimeter30.23 in.Hg (1024 mB)
Relative humidity85 %
Density altitude-1,154 ft. (-352 m)
Sea-level pressure102.4 kPa (1024 mB, 30.23 in.Hg)
Remarks Fully automated report
System requires maintenance
Automated weather observing station with precipitation discriminator
Flight conditions Visual Meteorological Conditions
Raw dataKSKF 050455Z AUTO 28003KT 10SM CLR 07/05 A3023 RMK AO2 SLP238 T00730049 $
An unhandled exception has occurred. See browser dev tools for details. Reload 🗙